sensor_id;sensor_type;location;lat;lon;timestamp;P1;durP1;ratioP1;P2;durP2;ratioP2
34535;SDS011;20779;55.596;37.538;2022-07-10T00:00:43;9.20;;;6.10;;
34535;SDS011;20779;55.596;37.538;2022-07-10T00:03:09;8.77;;;6.10;;
34535;SDS011;20779;55.596;37.538;2022-07-10T00:05:35;6.85;;;5.30;;
34535;SDS011;20779;55.596;37.538;2022-07-10T00:08:02;7.25;;;4.93;;
34535;SDS011;20779;55.596;37.538;2022-07-10T00:10:28;10.20;;;5.05;;
34535;SDS011;20779;55.596;37.538;2022-07-10T00:12:55;6.40;;;4.45;;
34535;SDS011;20779;55.596;37.538;2022-07-10T00:15:22;6.82;;;4.80;;
34535;SDS011;20779;55.596;37.538;2022-07-10T00:17:48;7.50;;;5.20;;
34535;SDS011;20779;55.596;37.538;2022-07-10T00:20:15;5.72;;;5.13;;
34535;SDS011;20779;55.596;37.538;2022-07-10T00:22:42;8.07;;;5.15;;
34535;SDS011;20779;55.596;37.538;2022-07-10T00:25:10;6.38;;;4.22;;
34535;SDS011;20779;55.596;37.538;2022-07-10T00:27:38;6.35;;;4.47;;
34535;SDS011;20779;55.596;37.538;2022-07-10T00:30:06;7.47;;;4.15;;
34535;SDS011;20779;55.596;37.538;2022-07-10T00:32:35;7.90;;;4.10;;
34535;SDS011;20779;55.596;37.538;2022-07-10T00:35:02;7.60;;;4.57;;
34535;SDS011;20779;55.596;37.538;2022-07-10T00:37:30;6.07;;;4.47;;
34535;SDS011;20779;55.596;37.538;2022-07-10T00:39:56;6.47;;;4.50;;
34535;SDS011;20779;55.596;37.538;2022-07-10T00:42:22;5.95;;;3.85;;
34535;SDS011;20779;55.596;37.538;2022-07-10T00:44:48;4.88;;;3.90;;
34535;SDS011;20779;55.596;37.538;2022-07-10T00:47:15;5.70;;;3.72;;
34535;SDS011;20779;55.596;37.538;2022-07-10T00:49:45;6.10;;;4.75;;
34535;SDS011;20779;55.596;37.538;2022-07-10T00:52:13;5.22;;;3.97;;
34535;SDS011;20779;55.596;37.538;2022-07-10T00:54:42;6.93;;;4.45;;
34535;SDS011;20779;55.596;37.538;2022-07-10T00:57:12;5.22;;;3.72;;
34535;SDS011;20779;55.596;37.538;2022-07-10T00:59:40;5.50;;;3.88;;
34535;SDS011;20779;55.596;37.538;2022-07-10T01:02:07;6.00;;;3.85;;
34535;SDS011;20779;55.596;37.538;2022-07-10T01:04:33;3.85;;;3.38;;
34535;SDS011;20779;55.596;37.538;2022-07-10T01:06:59;5.03;;;3.63;;
34535;SDS011;20779;55.596;37.538;2022-07-10T01:09:26;3.97;;;3.38;;
34535;SDS011;20779;55.596;37.538;2022-07-10T01:11:54;7.05;;;4.97;;
34535;SDS011;20779;55.596;37.538;2022-07-10T01:14:22;5.38;;;3.65;;
34535;SDS011;20779;55.596;37.538;2022-07-10T01:16:49;6.22;;;3.53;;
34535;SDS011;20779;55.596;37.538;2022-07-10T01:19:16;7.80;;;4.53;;
34535;SDS011;20779;55.596;37.538;2022-07-10T01:21:42;7.32;;;4.80;;
34535;SDS011;20779;55.596;37.538;2022-07-10T01:24:09;7.82;;;4.85;;
34535;SDS011;20779;55.596;37.538;2022-07-10T01:26:36;8.57;;;5.10;;
34535;SDS011;20779;55.596;37.538;2022-07-10T01:29:08;9.00;;;4.78;;
34535;SDS011;20779;55.596;37.538;2022-07-10T01:31:36;7.90;;;5.57;;
34535;SDS011;20779;55.596;37.538;2022-07-10T01:34:04;8.73;;;6.13;;
34535;SDS011;20779;55.596;37.538;2022-07-10T01:36:34;7.13;;;4.78;;
34535;SDS011;20779;55.596;37.538;2022-07-10T01:39:01;9.88;;;7.28;;
34535;SDS011;20779;55.596;37.538;2022-07-10T01:41:28;7.63;;;6.82;;
34535;SDS011;20779;55.596;37.538;2022-07-10T01:43:54;9.60;;;7.57;;
34535;SDS011;20779;55.596;37.538;2022-07-10T01:46:20;7.55;;;5.70;;
34535;SDS011;20779;55.596;37.538;2022-07-10T01:48:47;9.43;;;5.53;;
34535;SDS011;20779;55.596;37.538;2022-07-10T01:51:13;8.05;;;5.72;;
34535;SDS011;20779;55.596;37.538;2022-07-10T01:53:40;6.90;;;6.00;;
34535;SDS011;20779;55.596;37.538;2022-07-10T01:56:08;6.25;;;5.10;;
34535;SDS011;20779;55.596;37.538;2022-07-10T01:58:37;8.50;;;6.90;;
34535;SDS011;20779;55.596;37.538;2022-07-10T02:01:03;6.57;;;5.20;;
34535;SDS011;20779;55.596;37.538;2022-07-10T02:03:30;8.13;;;5.25;;
34535;SDS011;20779;55.596;37.538;2022-07-10T02:06:16;6.25;;;5.35;;
34535;SDS011;20779;55.596;37.538;2022-07-10T02:08:43;8.70;;;6.05;;
34535;SDS011;20779;55.596;37.538;2022-07-10T02:11:09;6.15;;;5.30;;
34535;SDS011;20779;55.596;37.538;2022-07-10T02:13:37;8.88;;;5.47;;
34535;SDS011;20779;55.596;37.538;2022-07-10T02:16:04;7.22;;;5.38;;
34535;SDS011;20779;55.596;37.538;2022-07-10T02:18:31;7.43;;;5.38;;
34535;SDS011;20779;55.596;37.538;2022-07-10T02:20:57;6.78;;;5.75;;
34535;SDS011;20779;55.596;37.538;2022-07-10T02:23:24;8.50;;;6.43;;
34535;SDS011;20779;55.596;37.538;2022-07-10T02:25:50;9.77;;;7.03;;
34535;SDS011;20779;55.596;37.538;2022-07-10T02:28:16;11.52;;;9.02;;
34535;SDS011;20779;55.596;37.538;2022-07-10T02:30:42;11.88;;;7.82;;
34535;SDS011;20779;55.596;37.538;2022-07-10T02:33:08;11.85;;;7.53;;
34535;SDS011;20779;55.596;37.538;2022-07-10T02:35:34;12.68;;;8.13;;
34535;SDS011;20779;55.596;37.538;2022-07-10T02:38:00;12.13;;;6.78;;
34535;SDS011;20779;55.596;37.538;2022-07-10T02:40:26;11.23;;;6.97;;
34535;SDS011;20779;55.596;37.538;2022-07-10T02:42:53;11.20;;;7.82;;
34535;SDS011;20779;55.596;37.538;2022-07-10T02:45:19;11.02;;;8.05;;
34535;SDS011;20779;55.596;37.538;2022-07-10T02:47:45;10.02;;;7.18;;
34535;SDS011;20779;55.596;37.538;2022-07-10T02:50:11;11.13;;;7.47;;
34535;SDS011;20779;55.596;37.538;2022-07-10T02:52:37;18.30;;;7.03;;
34535;SDS011;20779;55.596;37.538;2022-07-10T02:55:03;15.10;;;7.03;;
34535;SDS011;20779;55.596;37.538;2022-07-10T02:57:30;11.20;;;7.55;;
34535;SDS011;20779;55.596;37.538;2022-07-10T02:59:56;12.45;;;7.18;;
34535;SDS011;20779;55.596;37.538;2022-07-10T03:02:22;13.52;;;7.78;;
34535;SDS011;20779;55.596;37.538;2022-07-10T03:04:48;13.90;;;8.43;;
34535;SDS011;20779;55.596;37.538;2022-07-10T03:07:15;19.40;;;8.32;;
34535;SDS011;20779;55.596;37.538;2022-07-10T03:09:41;12.60;;;8.65;;
34535;SDS011;20779;55.596;37.538;2022-07-10T03:12:07;12.15;;;8.45;;
34535;SDS011;20779;55.596;37.538;2022-07-10T03:14:33;12.23;;;8.15;;
34535;SDS011;20779;55.596;37.538;2022-07-10T03:16:59;10.32;;;8.25;;
34535;SDS011;20779;55.596;37.538;2022-07-10T03:19:25;11.73;;;8.50;;
34535;SDS011;20779;55.596;37.538;2022-07-10T03:21:51;12.48;;;8.57;;
34535;SDS011;20779;55.596;37.538;2022-07-10T03:24:17;16.48;;;10.23;;
34535;SDS011;20779;55.596;37.538;2022-07-10T03:26:44;11.52;;;9.13;;
34535;SDS011;20779;55.596;37.538;2022-07-10T03:29:10;14.50;;;9.57;;
34535;SDS011;20779;55.596;37.538;2022-07-10T03:31:36;12.50;;;9.30;;
34535;SDS011;20779;55.596;37.538;2022-07-10T03:34:02;15.35;;;9.48;;
34535;SDS011;20779;55.596;37.538;2022-07-10T03:36:28;11.13;;;9.55;;
34535;SDS011;20779;55.596;37.538;2022-07-10T03:38:54;14.07;;;9.82;;
34535;SDS011;20779;55.596;37.538;2022-07-10T03:41:21;12.77;;;9.48;;
34535;SDS011;20779;55.596;37.538;2022-07-10T03:43:47;10.95;;;9.55;;
34535;SDS011;20779;55.596;37.538;2022-07-10T03:46:13;13.85;;;10.00;;
34535;SDS011;20779;55.596;37.538;2022-07-10T03:48:39;16.73;;;9.88;;
34535;SDS011;20779;55.596;37.538;2022-07-10T03:51:05;12.95;;;9.18;;
34535;SDS011;20779;55.596;37.538;2022-07-10T03:53:31;14.73;;;9.90;;
34535;SDS011;20779;55.596;37.538;2022-07-10T03:55:58;10.85;;;8.38;;
34535;SDS011;20779;55.596;37.538;2022-07-10T03:58:25;11.32;;;6.63;;
34535;SDS011;20779;55.596;37.538;2022-07-10T04:00:52;9.82;;;7.15;;
34535;SDS011;20779;55.596;37.538;2022-07-10T04:03:18;8.52;;;6.78;;
34535;SDS011;20779;55.596;37.538;2022-07-10T04:05:44;10.88;;;5.63;;
34535;SDS011;20779;55.596;37.538;2022-07-10T04:08:10;8.75;;;5.65;;
34535;SDS011;20779;55.596;37.538;2022-07-10T04:10:36;8.02;;;5.57;;
34535;SDS011;20779;55.596;37.538;2022-07-10T04:13:02;10.07;;;5.55;;
34535;SDS011;20779;55.596;37.538;2022-07-10T04:15:28;6.03;;;5.03;;
34535;SDS011;20779;55.596;37.538;2022-07-10T04:17:55;6.57;;;5.07;;
34535;SDS011;20779;55.596;37.538;2022-07-10T04:20:21;9.35;;;5.13;;
34535;SDS011;20779;55.596;37.538;2022-07-10T04:22:47;12.00;;;5.50;;
34535;SDS011;20779;55.596;37.538;2022-07-10T04:25:14;7.25;;;5.68;;
34535;SDS011;20779;55.596;37.538;2022-07-10T04:27:40;6.63;;;4.75;;
34535;SDS011;20779;55.596;37.538;2022-07-10T04:30:06;7.57;;;4.28;;
34535;SDS011;20779;55.596;37.538;2022-07-10T04:32:33;8.43;;;4.88;;
34535;SDS011;20779;55.596;37.538;2022-07-10T04:34:59;9.07;;;5.50;;
34535;SDS011;20779;55.596;37.538;2022-07-10T04:37:28;8.05;;;5.22;;
34535;SDS011;20779;55.596;37.538;2022-07-10T04:39:55;6.95;;;5.15;;
34535;SDS011;20779;55.596;37.538;2022-07-10T04:42:21;8.50;;;6.35;;
34535;SDS011;20779;55.596;37.538;2022-07-10T04:44:47;9.10;;;6.15;;
34535;SDS011;20779;55.596;37.538;2022-07-10T04:47:13;9.75;;;5.95;;
34535;SDS011;20779;55.596;37.538;2022-07-10T04:49:39;9.73;;;6.38;;
34535;SDS011;20779;55.596;37.538;2022-07-10T04:52:05;7.00;;;6.30;;
34535;SDS011;20779;55.596;37.538;2022-07-10T04:54:32;7.13;;;6.10;;
34535;SDS011;20779;55.596;37.538;2022-07-10T04:56:58;9.98;;;6.85;;
34535;SDS011;20779;55.596;37.538;2022-07-10T04:59:25;10.18;;;7.28;;
34535;SDS011;20779;55.596;37.538;2022-07-10T05:01:51;9.05;;;6.30;;
34535;SDS011;20779;55.596;37.538;2022-07-10T05:04:17;10.02;;;6.40;;
34535;SDS011;20779;55.596;37.538;2022-07-10T05:06:43;9.60;;;6.65;;
34535;SDS011;20779;55.596;37.538;2022-07-10T05:09:15;9.02;;;7.10;;
34535;SDS011;20779;55.596;37.538;2022-07-10T05:12:18;9.80;;;7.35;;
34535;SDS011;20779;55.596;37.538;2022-07-10T05:14:44;11.05;;;7.57;;
34535;SDS011;20779;55.596;37.538;2022-07-10T05:17:10;10.50;;;7.13;;
34535;SDS011;20779;55.596;37.538;2022-07-10T05:19:36;9.32;;;6.78;;
34535;SDS011;20779;55.596;37.538;2022-07-10T05:22:03;11.07;;;8.15;;
34535;SDS011;20779;55.596;37.538;2022-07-10T05:24:29;14.15;;;7.97;;
34535;SDS011;20779;55.596;37.538;2022-07-10T05:26:55;9.30;;;6.93;;
34535;SDS011;20779;55.596;37.538;2022-07-10T05:29:21;10.02;;;7.47;;
34535;SDS011;20779;55.596;37.538;2022-07-10T05:31:47;8.57;;;7.68;;
34535;SDS011;20779;55.596;37.538;2022-07-10T05:34:14;11.75;;;7.65;;
34535;SDS011;20779;55.596;37.538;2022-07-10T05:36:40;10.27;;;7.18;;
34535;SDS011;20779;55.596;37.538;2022-07-10T05:39:06;10.77;;;7.40;;
34535;SDS011;20779;55.596;37.538;2022-07-10T05:41:32;9.07;;;7.25;;
34535;SDS011;20779;55.596;37.538;2022-07-10T05:43:59;12.05;;;7.50;;
34535;SDS011;20779;55.596;37.538;2022-07-10T05:46:25;10.52;;;8.38;;
34535;SDS011;20779;55.596;37.538;2022-07-10T05:48:52;10.35;;;7.30;;
34535;SDS011;20779;55.596;37.538;2022-07-10T05:51:18;10.02;;;7.00;;
34535;SDS011;20779;55.596;37.538;2022-07-10T05:53:44;10.75;;;8.13;;
34535;SDS011;20779;55.596;37.538;2022-07-10T05:56:10;15.32;;;8.63;;
34535;SDS011;20779;55.596;37.538;2022-07-10T05:58:36;12.65;;;8.63;;
34535;SDS011;20779;55.596;37.538;2022-07-10T06:01:02;11.27;;;8.30;;
34535;SDS011;20779;55.596;37.538;2022-07-10T06:03:29;14.07;;;9.50;;
34535;SDS011;20779;55.596;37.538;2022-07-10T06:05:55;11.88;;;9.00;;
34535;SDS011;20779;55.596;37.538;2022-07-10T06:08:24;11.25;;;8.50;;
34535;SDS011;20779;55.596;37.538;2022-07-10T06:10:50;12.75;;;7.95;;
34535;SDS011;20779;55.596;37.538;2022-07-10T06:13:17;11.18;;;8.00;;
34535;SDS011;20779;55.596;37.538;2022-07-10T06:15:43;14.48;;;7.78;;
34535;SDS011;20779;55.596;37.538;2022-07-10T06:18:09;11.48;;;8.35;;
34535;SDS011;20779;55.596;37.538;2022-07-10T06:20:35;18.20;;;9.70;;
34535;SDS011;20779;55.596;37.538;2022-07-10T06:23:02;15.05;;;8.60;;
34535;SDS011;20779;55.596;37.538;2022-07-10T06:25:28;11.05;;;8.68;;
34535;SDS011;20779;55.596;37.538;2022-07-10T06:27:54;14.95;;;8.88;;
34535;SDS011;20779;55.596;37.538;2022-07-10T06:30:20;11.77;;;8.52;;
34535;SDS011;20779;55.596;37.538;2022-07-10T06:32:46;9.07;;;8.15;;
34535;SDS011;20779;55.596;37.538;2022-07-10T06:35:12;14.65;;;8.90;;
34535;SDS011;20779;55.596;37.538;2022-07-10T06:37:38;10.15;;;8.25;;
34535;SDS011;20779;55.596;37.538;2022-07-10T06:40:05;10.23;;;8.90;;
34535;SDS011;20779;55.596;37.538;2022-07-10T06:42:32;10.82;;;8.75;;
34535;SDS011;20779;55.596;37.538;2022-07-10T06:44:59;13.07;;;9.40;;
34535;SDS011;20779;55.596;37.538;2022-07-10T06:47:25;12.07;;;8.98;;
34535;SDS011;20779;55.596;37.538;2022-07-10T06:50:10;14.68;;;9.48;;
34535;SDS011;20779;55.596;37.538;2022-07-10T06:52:36;12.60;;;9.75;;
34535;SDS011;20779;55.596;37.538;2022-07-10T06:55:03;10.75;;;9.40;;
34535;SDS011;20779;55.596;37.538;2022-07-10T06:57:30;12.43;;;10.18;;
34535;SDS011;20779;55.596;37.538;2022-07-10T06:59:57;12.75;;;9.95;;
34535;SDS011;20779;55.596;37.538;2022-07-10T07:02:23;14.77;;;9.77;;
34535;SDS011;20779;55.596;37.538;2022-07-10T07:04:49;19.02;;;11.00;;
34535;SDS011;20779;55.596;37.538;2022-07-10T07:07:15;12.40;;;10.80;;
34535;SDS011;20779;55.596;37.538;2022-07-10T07:09:42;15.68;;;11.02;;
34535;SDS011;20779;55.596;37.538;2022-07-10T07:12:09;17.23;;;11.05;;
34535;SDS011;20779;55.596;37.538;2022-07-10T07:14:35;14.68;;;10.32;;
34535;SDS011;20779;55.596;37.538;2022-07-10T07:17:01;12.32;;;10.35;;
34535;SDS011;20779;55.596;37.538;2022-07-10T07:19:32;20.60;;;11.32;;
34535;SDS011;20779;55.596;37.538;2022-07-10T07:22:17;11.57;;;9.80;;
34535;SDS011;20779;55.596;37.538;2022-07-10T07:25:10;11.55;;;9.93;;
34535;SDS011;20779;55.596;37.538;2022-07-10T07:27:37;10.88;;;9.00;;
34535;SDS011;20779;55.596;37.538;2022-07-10T07:30:04;13.80;;;9.25;;
34535;SDS011;20779;55.596;37.538;2022-07-10T07:32:36;12.77;;;8.90;;
34535;SDS011;20779;55.596;37.538;2022-07-10T07:35:04;16.17;;;9.45;;
34535;SDS011;20779;55.596;37.538;2022-07-10T07:37:36;10.40;;;9.20;;
34535;SDS011;20779;55.596;37.538;2022-07-10T07:40:05;10.90;;;9.73;;
34535;SDS011;20779;55.596;37.538;2022-07-10T07:42:34;11.10;;;8.48;;
34535;SDS011;20779;55.596;37.538;2022-07-10T07:45:01;12.10;;;9.65;;
34535;SDS011;20779;55.596;37.538;2022-07-10T07:47:37;12.43;;;8.60;;
34535;SDS011;20779;55.596;37.538;2022-07-10T07:50:15;12.70;;;8.30;;
34535;SDS011;20779;55.596;37.538;2022-07-10T07:52:44;10.80;;;7.78;;
34535;SDS011;20779;55.596;37.538;2022-07-10T07:55:12;11.50;;;8.27;;
34535;SDS011;20779;55.596;37.538;2022-07-10T07:57:40;11.63;;;8.27;;
34535;SDS011;20779;55.596;37.538;2022-07-10T08:00:08;11.32;;;7.68;;
34535;SDS011;20779;55.596;37.538;2022-07-10T08:02:39;8.35;;;7.47;;
34535;SDS011;20779;55.596;37.538;2022-07-10T08:05:06;10.93;;;7.78;;
34535;SDS011;20779;55.596;37.538;2022-07-10T08:07:41;9.95;;;6.88;;
34535;SDS011;20779;55.596;37.538;2022-07-10T08:10:10;13.32;;;6.35;;
34535;SDS011;20779;55.596;37.538;2022-07-10T08:12:42;6.50;;;5.35;;
34535;SDS011;20779;55.596;37.538;2022-07-10T08:15:17;8.82;;;5.95;;
34535;SDS011;20779;55.596;37.538;2022-07-10T08:17:48;8.25;;;6.40;;
34535;SDS011;20779;55.596;37.538;2022-07-10T08:20:21;7.45;;;5.55;;
34535;SDS011;20779;55.596;37.538;2022-07-10T08:22:50;9.55;;;5.95;;
34535;SDS011;20779;55.596;37.538;2022-07-10T08:25:18;7.78;;;5.60;;
34535;SDS011;20779;55.596;37.538;2022-07-10T08:27:45;9.90;;;5.97;;
34535;SDS011;20779;55.596;37.538;2022-07-10T08:30:11;7.45;;;5.65;;
34535;SDS011;20779;55.596;37.538;2022-07-10T08:32:38;15.95;;;6.78;;
34535;SDS011;20779;55.596;37.538;2022-07-10T08:35:05;8.23;;;6.55;;
34535;SDS011;20779;55.596;37.538;2022-07-10T08:37:42;7.07;;;5.60;;
34535;SDS011;20779;55.596;37.538;2022-07-10T08:40:11;11.38;;;5.85;;
34535;SDS011;20779;55.596;37.538;2022-07-10T08:42:39;9.43;;;6.10;;
34535;SDS011;20779;55.596;37.538;2022-07-10T08:45:06;9.60;;;6.13;;
34535;SDS011;20779;55.596;37.538;2022-07-10T08:47:34;9.45;;;5.75;;
34535;SDS011;20779;55.596;37.538;2022-07-10T08:50:02;10.38;;;5.97;;
34535;SDS011;20779;55.596;37.538;2022-07-10T08:52:33;7.85;;;5.40;;
34535;SDS011;20779;55.596;37.538;2022-07-10T08:55:23;9.57;;;6.40;;
34535;SDS011;20779;55.596;37.538;2022-07-10T08:57:51;8.05;;;5.38;;
34535;SDS011;20779;55.596;37.538;2022-07-10T09:00:20;9.77;;;5.70;;
34535;SDS011;20779;55.596;37.538;2022-07-10T09:02:46;8.98;;;5.65;;
34535;SDS011;20779;55.596;37.538;2022-07-10T09:05:12;6.88;;;5.20;;
34535;SDS011;20779;55.596;37.538;2022-07-10T09:07:40;8.25;;;5.57;;
34535;SDS011;20779;55.596;37.538;2022-07-10T09:10:10;7.80;;;4.63;;
34535;SDS011;20779;55.596;37.538;2022-07-10T09:12:50;6.07;;;4.30;;
34535;SDS011;20779;55.596;37.538;2022-07-10T09:15:20;9.05;;;3.90;;
34535;SDS011;20779;55.596;37.538;2022-07-10T09:17:52;16.63;;;4.95;;
34535;SDS011;20779;55.596;37.538;2022-07-10T09:20:24;8.30;;;4.70;;
34535;SDS011;20779;55.596;37.538;2022-07-10T09:25:47;8.30;;;4.10;;
34535;SDS011;20779;55.596;37.538;2022-07-10T09:28:16;4.47;;;3.17;;
34535;SDS011;20779;55.596;37.538;2022-07-10T09:30:47;5.45;;;3.63;;
34535;SDS011;20779;55.596;37.538;2022-07-10T09:41:15;10.38;;;3.85;;
34535;SDS011;20779;55.596;37.538;2022-07-10T09:43:53;5.47;;;3.42;;
34535;SDS011;20779;55.596;37.538;2022-07-10T09:46:32;10.98;;;4.10;;
34535;SDS011;20779;55.596;37.538;2022-07-10T09:54:09;5.95;;;3.85;;
34535;SDS011;20779;55.596;37.538;2022-07-10T09:56:43;10.40;;;4.00;;
34535;SDS011;20779;55.596;37.538;2022-07-10T09:59:14;9.52;;;4.15;;
34535;SDS011;20779;55.596;37.538;2022-07-10T10:01:49;5.97;;;3.20;;
34535;SDS011;20779;55.596;37.538;2022-07-10T10:04:19;6.25;;;3.60;;
34535;SDS011;20779;55.596;37.538;2022-07-10T10:06:53;7.05;;;3.70;;
34535;SDS011;20779;55.596;37.538;2022-07-10T10:12:46;5.03;;;3.00;;
34535;SDS011;20779;55.596;37.538;2022-07-10T10:15:16;4.63;;;2.60;;
34535;SDS011;20779;55.596;37.538;2022-07-10T10:18:15;5.93;;;3.28;;
34535;SDS011;20779;55.596;37.538;2022-07-10T10:20:47;5.28;;;3.38;;
34535;SDS011;20779;55.596;37.538;2022-07-10T10:23:18;5.20;;;3.50;;
34535;SDS011;20779;55.596;37.538;2022-07-10T10:25:47;7.85;;;3.83;;
34535;SDS011;20779;55.596;37.538;2022-07-10T10:28:19;6.20;;;3.10;;
34535;SDS011;20779;55.596;37.538;2022-07-10T10:30:49;4.68;;;3.20;;
34535;SDS011;20779;55.596;37.538;2022-07-10T10:35:58;6.45;;;3.50;;
34535;SDS011;20779;55.596;37.538;2022-07-10T10:38:30;5.95;;;3.10;;
34535;SDS011;20779;55.596;37.538;2022-07-10T10:46:34;6.90;;;3.05;;
34535;SDS011;20779;55.596;37.538;2022-07-10T10:49:07;6.00;;;3.00;;
34535;SDS011;20779;55.596;37.538;2022-07-10T10:54:30;7.65;;;2.92;;
34535;SDS011;20779;55.596;37.538;2022-07-10T10:57:37;6.68;;;2.60;;
34535;SDS011;20779;55.596;37.538;2022-07-10T11:00:11;6.00;;;3.30;;
34535;SDS011;20779;55.596;37.538;2022-07-10T11:02:42;5.85;;;2.90;;
34535;SDS011;20779;55.596;37.538;2022-07-10T11:10:26;6.10;;;3.22;;
34535;SDS011;20779;55.596;37.538;2022-07-10T11:15:28;4.68;;;2.97;;
34535;SDS011;20779;55.596;37.538;2022-07-10T11:17:58;6.45;;;3.08;;
34535;SDS011;20779;55.596;37.538;2022-07-10T11:20:51;6.13;;;3.10;;
34535;SDS011;20779;55.596;37.538;2022-07-10T11:26:03;6.32;;;3.03;;
34535;SDS011;20779;55.596;37.538;2022-07-10T11:31:16;7.90;;;2.83;;
34535;SDS011;20779;55.596;37.538;2022-07-10T11:33:50;3.85;;;2.97;;
34535;SDS011;20779;55.596;37.538;2022-07-10T11:36:28;5.03;;;3.00;;
34535;SDS011;20779;55.596;37.538;2022-07-10T11:39:01;5.60;;;2.80;;
34535;SDS011;20779;55.596;37.538;2022-07-10T11:41:32;5.45;;;2.85;;
34535;SDS011;20779;55.596;37.538;2022-07-10T11:46:28;7.30;;;3.58;;
34535;SDS011;20779;55.596;37.538;2022-07-10T11:48:56;10.98;;;3.40;;
34535;SDS011;20779;55.596;37.538;2022-07-10T11:51:24;6.22;;;2.95;;
34535;SDS011;20779;55.596;37.538;2022-07-10T11:53:58;8.50;;;3.50;;
34535;SDS011;20779;55.596;37.538;2022-07-10T11:56:26;5.97;;;2.95;;
34535;SDS011;20779;55.596;37.538;2022-07-10T11:58:59;8.52;;;3.25;;
34535;SDS011;20779;55.596;37.538;2022-07-10T12:01:28;5.75;;;3.05;;
34535;SDS011;20779;55.596;37.538;2022-07-10T12:09:03;10.00;;;3.30;;
34535;SDS011;20779;55.596;37.538;2022-07-10T12:11:44;9.48;;;3.13;;
34535;SDS011;20779;55.596;37.538;2022-07-10T12:14:26;6.45;;;2.95;;
34535;SDS011;20779;55.596;37.538;2022-07-10T12:16:53;8.90;;;3.53;;
34535;SDS011;20779;55.596;37.538;2022-07-10T12:22:04;6.47;;;3.50;;
34535;SDS011;20779;55.596;37.538;2022-07-10T12:24:31;9.95;;;2.90;;
34535;SDS011;20779;55.596;37.538;2022-07-10T12:26:58;7.38;;;3.95;;
34535;SDS011;20779;55.596;37.538;2022-07-10T12:29:25;7.80;;;3.70;;
34535;SDS011;20779;55.596;37.538;2022-07-10T12:31:56;7.65;;;2.80;;
34535;SDS011;20779;55.596;37.538;2022-07-10T12:34:39;7.38;;;3.00;;
34535;SDS011;20779;55.596;37.538;2022-07-10T12:37:13;5.82;;;2.72;;
34535;SDS011;20779;55.596;37.538;2022-07-10T12:39:51;8.00;;;2.95;;
34535;SDS011;20779;55.596;37.538;2022-07-10T12:42:28;8.80;;;2.35;;
34535;SDS011;20779;55.596;37.538;2022-07-10T12:45:11;5.65;;;2.60;;
34535;SDS011;20779;55.596;37.538;2022-07-10T12:47:46;7.60;;;2.75;;
34535;SDS011;20779;55.596;37.538;2022-07-10T12:50:14;4.32;;;2.80;;
34535;SDS011;20779;55.596;37.538;2022-07-10T12:52:42;8.57;;;2.63;;
34535;SDS011;20779;55.596;37.538;2022-07-10T12:57:56;6.30;;;2.88;;
34535;SDS011;20779;55.596;37.538;2022-07-10T13:00:44;7.03;;;2.90;;
34535;SDS011;20779;55.596;37.538;2022-07-10T13:03:20;4.20;;;2.83;;
34535;SDS011;20779;55.596;37.538;2022-07-10T13:05:50;8.25;;;2.92;;
34535;SDS011;20779;55.596;37.538;2022-07-10T13:08:20;7.57;;;3.15;;
34535;SDS011;20779;55.596;37.538;2022-07-10T13:10:54;8.60;;;3.65;;
34535;SDS011;20779;55.596;37.538;2022-07-10T13:13:24;6.40;;;2.90;;
34535;SDS011;20779;55.596;37.538;2022-07-10T13:15:50;12.32;;;3.53;;
34535;SDS011;20779;55.596;37.538;2022-07-10T13:18:23;9.07;;;3.08;;
34535;SDS011;20779;55.596;37.538;2022-07-10T13:20:57;8.48;;;3.42;;
34535;SDS011;20779;55.596;37.538;2022-07-10T13:23:24;5.53;;;2.90;;
34535;SDS011;20779;55.596;37.538;2022-07-10T13:25:54;11.05;;;4.15;;
34535;SDS011;20779;55.596;37.538;2022-07-10T13:28:24;6.72;;;3.55;;
34535;SDS011;20779;55.596;37.538;2022-07-10T13:30:51;8.77;;;4.07;;
34535;SDS011;20779;55.596;37.538;2022-07-10T13:33:17;7.35;;;3.60;;
34535;SDS011;20779;55.596;37.538;2022-07-10T13:35:44;9.70;;;3.15;;
34535;SDS011;20779;55.596;37.538;2022-07-10T13:38:10;6.72;;;2.95;;
34535;SDS011;20779;55.596;37.538;2022-07-10T13:40:36;8.85;;;3.40;;
34535;SDS011;20779;55.596;37.538;2022-07-10T13:43:03;11.23;;;3.78;;
34535;SDS011;20779;55.596;37.538;2022-07-10T13:45:34;9.80;;;3.97;;
34535;SDS011;20779;55.596;37.538;2022-07-10T13:48:34;6.40;;;3.38;;
34535;SDS011;20779;55.596;37.538;2022-07-10T13:51:01;6.78;;;3.60;;
34535;SDS011;20779;55.596;37.538;2022-07-10T13:53:27;5.40;;;3.38;;
34535;SDS011;20779;55.596;37.538;2022-07-10T13:55:53;10.65;;;3.47;;
34535;SDS011;20779;55.596;37.538;2022-07-10T13:58:20;8.02;;;3.40;;
34535;SDS011;20779;55.596;37.538;2022-07-10T14:00:47;6.63;;;3.22;;
34535;SDS011;20779;55.596;37.538;2022-07-10T14:03:13;11.02;;;3.60;;
34535;SDS011;20779;55.596;37.538;2022-07-10T14:05:40;7.78;;;3.35;;
34535;SDS011;20779;55.596;37.538;2022-07-10T14:08:06;10.07;;;3.92;;
34535;SDS011;20779;55.596;37.538;2022-07-10T14:10:33;8.98;;;3.78;;
34535;SDS011;20779;55.596;37.538;2022-07-10T14:12:59;7.18;;;3.25;;
34535;SDS011;20779;55.596;37.538;2022-07-10T14:15:25;8.15;;;3.40;;
34535;SDS011;20779;55.596;37.538;2022-07-10T14:17:52;8.65;;;3.90;;
34535;SDS011;20779;55.596;37.538;2022-07-10T14:20:18;12.65;;;4.28;;
34535;SDS011;20779;55.596;37.538;2022-07-10T14:22:44;16.33;;;4.13;;
34535;SDS011;20779;55.596;37.538;2022-07-10T14:25:12;23.38;;;3.65;;
34535;SDS011;20779;55.596;37.538;2022-07-10T14:27:38;24.30;;;3.97;;
34535;SDS011;20779;55.596;37.538;2022-07-10T14:30:05;16.15;;;3.90;;
34535;SDS011;20779;55.596;37.538;2022-07-10T14:32:32;17.42;;;4.13;;
34535;SDS011;20779;55.596;37.538;2022-07-10T14:34:58;13.13;;;4.85;;
34535;SDS011;20779;55.596;37.538;2022-07-10T14:37:25;12.68;;;3.90;;
34535;SDS011;20779;55.596;37.538;2022-07-10T14:39:51;10.23;;;4.10;;
34535;SDS011;20779;55.596;37.538;2022-07-10T14:42:17;9.55;;;4.32;;
34535;SDS011;20779;55.596;37.538;2022-07-10T14:44:44;7.78;;;3.75;;
34535;SDS011;20779;55.596;37.538;2022-07-10T14:47:10;9.88;;;4.43;;
34535;SDS011;20779;55.596;37.538;2022-07-10T14:49:36;7.88;;;3.75;;
34535;SDS011;20779;55.596;37.538;2022-07-10T14:52:02;11.40;;;4.10;;
34535;SDS011;20779;55.596;37.538;2022-07-10T14:54:29;11.70;;;4.35;;
34535;SDS011;20779;55.596;37.538;2022-07-10T14:56:56;8.27;;;3.38;;
34535;SDS011;20779;55.596;37.538;2022-07-10T14:59:22;5.63;;;2.83;;
34535;SDS011;20779;55.596;37.538;2022-07-10T15:01:48;7.10;;;3.15;;
34535;SDS011;20779;55.596;37.538;2022-07-10T15:04:14;7.80;;;2.72;;
34535;SDS011;20779;55.596;37.538;2022-07-10T15:06:40;6.78;;;3.05;;
34535;SDS011;20779;55.596;37.538;2022-07-10T15:09:07;7.88;;;3.38;;
34535;SDS011;20779;55.596;37.538;2022-07-10T15:11:33;5.22;;;2.95;;
34535;SDS011;20779;55.596;37.538;2022-07-10T15:13:59;7.53;;;3.05;;
34535;SDS011;20779;55.596;37.538;2022-07-10T15:16:26;6.63;;;2.70;;
34535;SDS011;20779;55.596;37.538;2022-07-10T15:18:53;11.30;;;2.30;;
34535;SDS011;20779;55.596;37.538;2022-07-10T15:21:20;6.35;;;2.45;;
34535;SDS011;20779;55.596;37.538;2022-07-10T15:23:46;7.00;;;3.20;;
34535;SDS011;20779;55.596;37.538;2022-07-10T15:26:13;8.48;;;2.47;;
34535;SDS011;20779;55.596;37.538;2022-07-10T15:28:40;5.07;;;2.15;;
34535;SDS011;20779;55.596;37.538;2022-07-10T15:31:07;5.43;;;2.30;;
34535;SDS011;20779;55.596;37.538;2022-07-10T15:33:33;5.15;;;2.10;;